sensor_id;sensor_type;location;lat;lon;timestamp;temperature;humidity
41939;DHT22;23057;48.554;14.454;2022-07-23T00:01:59;19.80;99.90
41939;DHT22;23057;48.554;14.454;2022-07-23T00:04:30;19.80;99.90
41939;DHT22;23057;48.554;14.454;2022-07-23T00:07:00;19.90;99.90
41939;DHT22;23057;48.554;14.454;2022-07-23T00:09:31;19.90;99.90
41939;DHT22;23057;48.554;14.454;2022-07-23T00:12:02;19.80;99.90
41939;DHT22;23057;48.554;14.454;2022-07-23T00:14:34;19.70;99.90
41939;DHT22;23057;48.554;14.454;2022-07-23T00:17:05;19.70;99.90
41939;DHT22;23057;48.554;14.454;2022-07-23T00:19:36;19.70;99.90
41939;DHT22;23057;48.554;14.454;2022-07-23T00:22:07;19.60;99.90
41939;DHT22;23057;48.554;14.454;2022-07-23T00:24:38;19.30;1.00
41939;DHT22;23057;48.554;14.454;2022-07-23T00:27:09;19.20;99.90
41939;DHT22;23057;48.554;14.454;2022-07-23T00:29:39;19.00;99.90
41939;DHT22;23057;48.554;14.454;2022-07-23T00:32:10;18.90;1.00
41939;DHT22;23057;48.554;14.454;2022-07-23T00:34:41;18.80;99.90
41939;DHT22;23057;48.554;14.454;2022-07-23T00:37:12;18.70;99.90
41939;DHT22;23057;48.554;14.454;2022-07-23T00:39:43;18.80;99.90
41939;DHT22;23057;48.554;14.454;2022-07-23T00:42:13;19.00;99.90
41939;DHT22;23057;48.554;14.454;2022-07-23T00:44:44;19.10;99.90
41939;DHT22;23057;48.554;14.454;2022-07-23T00:47:17;19.10;99.90
41939;DHT22;23057;48.554;14.454;2022-07-23T00:49:48;18.90;99.90
41939;DHT22;23057;48.554;14.454;2022-07-23T00:52:19;18.80;99.90
41939;DHT22;23057;48.554;14.454;2022-07-23T00:54:50;18.70;99.90
41939;DHT22;23057;48.554;14.454;2022-07-23T00:57:21;18.80;99.90
41939;DHT22;23057;48.554;14.454;2022-07-23T00:59:52;18.90;99.90
41939;DHT22;23057;48.554;14.454;2022-07-23T01:02:24;19.20;99.90
41939;DHT22;23057;48.554;14.454;2022-07-23T01:04:56;19.30;25.80
41939;DHT22;23057;48.554;14.454;2022-07-23T01:07:27;19.40;1.00
41939;DHT22;23057;48.554;14.454;2022-07-23T01:09:59;19.40;99.90
41939;DHT22;23057;48.554;14.454;2022-07-23T01:12:31;19.30;99.90
41939;DHT22;23057;48.554;14.454;2022-07-23T01:15:01;19.10;99.90
41939;DHT22;23057;48.554;14.454;2022-07-23T01:17:33;19.10;1.00
41939;DHT22;23057;48.554;14.454;2022-07-23T01:20:04;19.20;1.00
41939;DHT22;23057;48.554;14.454;2022-07-23T01:22:35;19.40;99.90
41939;DHT22;23057;48.554;14.454;2022-07-23T01:25:06;19.50;99.90
41939;DHT22;23057;48.554;14.454;2022-07-23T01:27:37;19.50;99.90
41939;DHT22;23057;48.554;14.454;2022-07-23T01:30:09;19.60;99.90
41939;DHT22;23057;48.554;14.454;2022-07-23T01:32:40;19.70;75.30
41939;DHT22;23057;48.554;14.454;2022-07-23T01:35:11;19.80;1.00
41939;DHT22;23057;48.554;14.454;2022-07-23T01:37:43;19.90;1.00
41939;DHT22;23057;48.554;14.454;2022-07-23T01:40:13;20.00;99.90
41939;DHT22;23057;48.554;14.454;2022-07-23T01:42:44;20.10;99.90
41939;DHT22;23057;48.554;14.454;2022-07-23T01:45:15;20.00;99.90
41939;DHT22;23057;48.554;14.454;2022-07-23T01:47:46;20.00;99.90
41939;DHT22;23057;48.554;14.454;2022-07-23T01:50:18;20.00;99.90
41939;DHT22;23057;48.554;14.454;2022-07-23T01:52:49;19.90;99.90
41939;DHT22;23057;48.554;14.454;2022-07-23T01:55:19;19.80;99.90
41939;DHT22;23057;48.554;14.454;2022-07-23T01:57:50;19.70;1.00
41939;DHT22;23057;48.554;14.454;2022-07-23T02:00:21;19.60;1.00
41939;DHT22;23057;48.554;14.454;2022-07-23T02:02:52;19.60;1.00
41939;DHT22;23057;48.554;14.454;2022-07-23T02:05:23;19.60;1.00
41939;DHT22;23057;48.554;14.454;2022-07-23T02:07:54;19.60;1.00
41939;DHT22;23057;48.554;14.454;2022-07-23T02:10:25;19.50;1.00
41939;DHT22;23057;48.554;14.454;2022-07-23T02:12:57;19.50;1.00
41939;DHT22;23057;48.554;14.454;2022-07-23T02:15:28;19.50;1.00
41939;DHT22;23057;48.554;14.454;2022-07-23T02:17:59;19.40;1.00
41939;DHT22;23057;48.554;14.454;2022-07-23T02:20:30;19.40;1.00
41939;DHT22;23057;48.554;14.454;2022-07-23T02:23:01;19.30;19.00
41939;DHT22;23057;48.554;14.454;2022-07-23T02:25:32;19.30;56.20
41939;DHT22;23057;48.554;14.454;2022-07-23T02:28:04;19.40;1.00
41939;DHT22;23057;48.554;14.454;2022-07-23T02:30:35;19.50;1.00
41939;DHT22;23057;48.554;14.454;2022-07-23T02:33:08;19.50;1.00
41939;DHT22;23057;48.554;14.454;2022-07-23T02:35:39;19.50;99.90
41939;DHT22;23057;48.554;14.454;2022-07-23T02:38:09;19.60;99.90
41939;DHT22;23057;48.554;14.454;2022-07-23T02:40:40;19.70;99.90
41939;DHT22;23057;48.554;14.454;2022-07-23T02:43:11;19.70;99.90
41939;DHT22;23057;48.554;14.454;2022-07-23T02:45:42;19.70;99.90
41939;DHT22;23057;48.554;14.454;2022-07-23T02:48:13;19.80;99.90
41939;DHT22;23057;48.554;14.454;2022-07-23T02:50:44;19.80;99.90
41939;DHT22;23057;48.554;14.454;2022-07-23T02:53:15;19.80;99.90
41939;DHT22;23057;48.554;14.454;2022-07-23T02:55:46;19.70;99.90
41939;DHT22;23057;48.554;14.454;2022-07-23T02:58:17;19.60;99.90
41939;DHT22;23057;48.554;14.454;2022-07-23T03:00:48;19.50;99.90
41939;DHT22;23057;48.554;14.454;2022-07-23T03:03:19;19.50;99.90
41939;DHT22;23057;48.554;14.454;2022-07-23T03:05:50;19.40;1.00
41939;DHT22;23057;48.554;14.454;2022-07-23T03:08:21;19.40;1.00
41939;DHT22;23057;48.554;14.454;2022-07-23T03:10:52;19.50;1.00
41939;DHT22;23057;48.554;14.454;2022-07-23T03:13:23;19.50;99.90
41939;DHT22;23057;48.554;14.454;2022-07-23T03:15:53;19.60;99.90
41939;DHT22;23057;48.554;14.454;2022-07-23T03:18:24;19.60;99.90
41939;DHT22;23057;48.554;14.454;2022-07-23T03:20:55;19.60;99.90
41939;DHT22;23057;48.554;14.454;2022-07-23T03:23:26;19.60;99.90
41939;DHT22;23057;48.554;14.454;2022-07-23T03:25:57;19.70;99.90
41939;DHT22;23057;48.554;14.454;2022-07-23T03:28:28;19.60;99.90
41939;DHT22;23057;48.554;14.454;2022-07-23T03:30:59;19.70;99.90
41939;DHT22;23057;48.554;14.454;2022-07-23T03:33:30;19.70;99.90
41939;DHT22;23057;48.554;14.454;2022-07-23T03:36:00;19.70;99.90
41939;DHT22;23057;48.554;14.454;2022-07-23T03:38:31;19.70;99.90
41939;DHT22;23057;48.554;14.454;2022-07-23T03:41:02;19.70;99.90
41939;DHT22;23057;48.554;14.454;2022-07-23T03:43:33;19.70;99.90
41939;DHT22;23057;48.554;14.454;2022-07-23T03:46:04;19.60;99.90
41939;DHT22;23057;48.554;14.454;2022-07-23T03:48:35;19.60;99.90
41939;DHT22;23057;48.554;14.454;2022-07-23T03:51:06;19.60;99.90
41939;DHT22;23057;48.554;14.454;2022-07-23T03:53:38;19.50;99.90
41939;DHT22;23057;48.554;14.454;2022-07-23T03:56:10;19.50;99.90
41939;DHT22;23057;48.554;14.454;2022-07-23T03:58:41;19.50;99.90
41939;DHT22;23057;48.554;14.454;2022-07-23T04:01:12;19.50;99.90
41939;DHT22;23057;48.554;14.454;2022-07-23T04:03:43;19.50;99.90
41939;DHT22;23057;48.554;14.454;2022-07-23T04:06:13;19.50;99.90
41939;DHT22;23057;48.554;14.454;2022-07-23T04:08:44;19.50;99.90
41939;DHT22;23057;48.554;14.454;2022-07-23T04:11:15;19.50;99.90
41939;DHT22;23057;48.554;14.454;2022-07-23T04:13:46;19.50;99.90
41939;DHT22;23057;48.554;14.454;2022-07-23T04:16:17;19.50;99.90
41939;DHT22;23057;48.554;14.454;2022-07-23T04:18:47;19.70;1.00
41939;DHT22;23057;48.554;14.454;2022-07-23T04:21:18;20.10;99.90
41939;DHT22;23057;48.554;14.454;2022-07-23T04:23:49;20.50;99.90
41939;DHT22;23057;48.554;14.454;2022-07-23T04:26:20;20.70;99.90
41939;DHT22;23057;48.554;14.454;2022-07-23T04:28:51;20.90;99.90
41939;DHT22;23057;48.554;14.454;2022-07-23T04:31:22;21.00;99.90
41939;DHT22;23057;48.554;14.454;2022-07-23T04:33:53;21.10;95.10
41939;DHT22;23057;48.554;14.454;2022-07-23T04:36:24;21.40;48.20
41939;DHT22;23057;48.554;14.454;2022-07-23T04:38:54;22.30;1.00
41939;DHT22;23057;48.554;14.454;2022-07-23T04:41:25;23.20;1.00
41939;DHT22;23057;48.554;14.454;2022-07-23T04:43:56;24.00;1.00
41939;DHT22;23057;48.554;14.454;2022-07-23T04:46:27;24.60;99.90
41939;DHT22;23057;48.554;14.454;2022-07-23T04:48:58;25.00;99.90
41939;DHT22;23057;48.554;14.454;2022-07-23T04:51:29;26.00;99.90
41939;DHT22;23057;48.554;14.454;2022-07-23T04:53:59;25.60;99.90
41939;DHT22;23057;48.554;14.454;2022-07-23T04:56:30;24.60;99.90
41939;DHT22;23057;48.554;14.454;2022-07-23T04:59:01;24.70;99.90
41939;DHT22;23057;48.554;14.454;2022-07-23T05:01:32;25.40;99.90
41939;DHT22;23057;48.554;14.454;2022-07-23T05:04:03;24.90;99.90
41939;DHT22;23057;48.554;14.454;2022-07-23T05:06:34;24.50;1.00
41939;DHT22;23057;48.554;14.454;2022-07-23T05:09:05;24.20;1.00
41939;DHT22;23057;48.554;14.454;2022-07-23T05:11:36;24.70;99.90
41939;DHT22;23057;48.554;14.454;2022-07-23T05:14:07;25.00;99.90
41939;DHT22;23057;48.554;14.454;2022-07-23T05:16:38;25.50;99.90
41939;DHT22;23057;48.554;14.454;2022-07-23T05:19:09;26.50;99.90
41939;DHT22;23057;48.554;14.454;2022-07-23T05:21:40;26.00;99.90
41939;DHT22;23057;48.554;14.454;2022-07-23T05:24:10;25.10;99.90
41939;DHT22;23057;48.554;14.454;2022-07-23T05:26:41;24.50;99.90
41939;DHT22;23057;48.554;14.454;2022-07-23T05:29:12;23.90;99.90
41939;DHT22;23057;48.554;14.454;2022-07-23T05:31:43;23.70;1.00
41939;DHT22;23057;48.554;14.454;2022-07-23T05:34:14;23.70;1.00
41939;DHT22;23057;48.554;14.454;2022-07-23T05:36:45;23.30;1.00
41939;DHT22;23057;48.554;14.454;2022-07-23T05:39:15;23.30;1.00
41939;DHT22;23057;48.554;14.454;2022-07-23T05:41:46;23.50;1.00
41939;DHT22;23057;48.554;14.454;2022-07-23T05:44:17;23.30;1.00
41939;DHT22;23057;48.554;14.454;2022-07-23T05:46:48;23.50;1.00
41939;DHT22;23057;48.554;14.454;2022-07-23T05:49:19;23.50;1.00
41939;DHT22;23057;48.554;14.454;2022-07-23T05:51:50;23.40;1.00
41939;DHT22;23057;48.554;14.454;2022-07-23T05:54:21;23.30;1.00
41939;DHT22;23057;48.554;14.454;2022-07-23T05:56:52;23.40;1.00
41939;DHT22;23057;48.554;14.454;2022-07-23T05:59:22;23.60;1.00
41939;DHT22;23057;48.554;14.454;2022-07-23T06:01:53;23.60;1.00
41939;DHT22;23057;48.554;14.454;2022-07-23T06:04:24;23.50;1.00
41939;DHT22;23057;48.554;14.454;2022-07-23T06:06:55;23.60;1.00
41939;DHT22;23057;48.554;14.454;2022-07-23T06:09:26;23.70;99.90
41939;DHT22;23057;48.554;14.454;2022-07-23T06:11:56;23.70;99.90
41939;DHT22;23057;48.554;14.454;2022-07-23T06:14:27;23.50;1.00
41939;DHT22;23057;48.554;14.454;2022-07-23T06:16:58;23.30;1.00
41939;DHT22;23057;48.554;14.454;2022-07-23T06:19:29;23.20;1.00
41939;DHT22;23057;48.554;14.454;2022-07-23T06:22:00;23.10;1.00
41939;DHT22;23057;48.554;14.454;2022-07-23T06:24:31;23.80;1.00
41939;DHT22;23057;48.554;14.454;2022-07-23T06:27:02;24.30;99.90
41939;DHT22;23057;48.554;14.454;2022-07-23T06:29:33;24.50;99.90
41939;DHT22;23057;48.554;14.454;2022-07-23T06:32:04;25.00;99.90
41939;DHT22;23057;48.554;14.454;2022-07-23T06:34:35;25.40;99.90
41939;DHT22;23057;48.554;14.454;2022-07-23T06:37:06;25.90;99.90
41939;DHT22;23057;48.554;14.454;2022-07-23T06:39:37;26.10;99.90
41939;DHT22;23057;48.554;14.454;2022-07-23T06:42:08;26.50;99.90
41939;DHT22;23057;48.554;14.454;2022-07-23T06:44:40;27.10;99.90
41939;DHT22;23057;48.554;14.454;2022-07-23T06:47:11;26.50;99.90
41939;DHT22;23057;48.554;14.454;2022-07-23T06:49:42;25.60;99.90
41939;DHT22;23057;48.554;14.454;2022-07-23T06:52:12;25.00;99.90
41939;DHT22;23057;48.554;14.454;2022-07-23T06:54:43;24.50;99.90
41939;DHT22;23057;48.554;14.454;2022-07-23T06:57:14;24.10;1.00
41939;DHT22;23057;48.554;14.454;2022-07-23T06:59:45;23.90;99.90
41939;DHT22;23057;48.554;14.454;2022-07-23T07:02:16;23.80;1.00
41939;DHT22;23057;48.554;14.454;2022-07-23T07:04:47;23.80;99.90
41939;DHT22;23057;48.554;14.454;2022-07-23T07:07:18;23.50;99.90
41939;DHT22;23057;48.554;14.454;2022-07-23T07:09:49;23.50;99.90
41939;DHT22;23057;48.554;14.454;2022-07-23T07:12:20;23.50;1.00
41939;DHT22;23057;48.554;14.454;2022-07-23T07:14:51;23.70;1.00
41939;DHT22;23057;48.554;14.454;2022-07-23T07:17:22;23.80;1.00
41939;DHT22;23057;48.554;14.454;2022-07-23T07:19:52;23.70;1.00
41939;DHT22;23057;48.554;14.454;2022-07-23T07:22:23;23.60;1.00
41939;DHT22;23057;48.554;14.454;2022-07-23T07:24:54;23.50;1.00
41939;DHT22;23057;48.554;14.454;2022-07-23T07:27:25;23.60;1.00
41939;DHT22;23057;48.554;14.454;2022-07-23T07:29:56;23.70;1.00
41939;DHT22;23057;48.554;14.454;2022-07-23T07:32:26;23.60;1.00
41939;DHT22;23057;48.554;14.454;2022-07-23T07:34:58;23.40;1.00
41939;DHT22;23057;48.554;14.454;2022-07-23T07:37:29;23.20;1.00
41939;DHT22;23057;48.554;14.454;2022-07-23T07:40:00;23.20;1.00
41939;DHT22;23057;48.554;14.454;2022-07-23T07:42:31;23.00;1.00
41939;DHT22;23057;48.554;14.454;2022-07-23T07:45:02;23.00;1.00
41939;DHT22;23057;48.554;14.454;2022-07-23T07:47:33;23.00;1.00
41939;DHT22;23057;48.554;14.454;2022-07-23T07:50:04;23.00;1.00
41939;DHT22;23057;48.554;14.454;2022-07-23T07:52:35;23.10;1.00
41939;DHT22;23057;48.554;14.454;2022-07-23T07:55:07;23.10;1.00
41939;DHT22;23057;48.554;14.454;2022-07-23T07:57:39;23.20;1.00
41939;DHT22;23057;48.554;14.454;2022-07-23T08:00:11;23.10;1.00
41939;DHT22;23057;48.554;14.454;2022-07-23T08:02:47;23.10;1.00
41939;DHT22;23057;48.554;14.454;2022-07-23T08:05:25;23.20;1.00
41939;DHT22;23057;48.554;14.454;2022-07-23T08:07:58;23.40;1.00
41939;DHT22;23057;48.554;14.454;2022-07-23T08:10:29;23.20;1.00
41939;DHT22;23057;48.554;14.454;2022-07-23T08:13:01;23.10;1.00
41939;DHT22;23057;48.554;14.454;2022-07-23T08:15:32;23.20;1.00
41939;DHT22;23057;48.554;14.454;2022-07-23T08:18:03;23.40;1.00
41939;DHT22;23057;48.554;14.454;2022-07-23T08:20:34;23.50;1.00
41939;DHT22;23057;48.554;14.454;2022-07-23T08:23:06;23.50;1.00
41939;DHT22;23057;48.554;14.454;2022-07-23T08:25:42;23.60;1.00
41939;DHT22;23057;48.554;14.454;2022-07-23T08:28:13;24.20;1.00
41939;DHT22;23057;48.554;14.454;2022-07-23T08:30:45;24.50;1.00
41939;DHT22;23057;48.554;14.454;2022-07-23T08:33:17;24.60;1.00
41939;DHT22;23057;48.554;14.454;2022-07-23T08:35:49;24.70;1.00
41939;DHT22;23057;48.554;14.454;2022-07-23T08:38:23;24.90;99.90
41939;DHT22;23057;48.554;14.454;2022-07-23T08:40:55;24.80;99.90
41939;DHT22;23057;48.554;14.454;2022-07-23T08:43:31;24.70;99.90
41939;DHT22;23057;48.554;14.454;2022-07-23T08:46:04;24.40;99.90
41939;DHT22;23057;48.554;14.454;2022-07-23T08:48:35;24.60;99.90
41939;DHT22;23057;48.554;14.454;2022-07-23T08:51:08;24.80;99.90
41939;DHT22;23057;48.554;14.454;2022-07-23T08:53:40;24.40;99.90
41939;DHT22;23057;48.554;14.454;2022-07-23T08:56:14;24.40;1.00
41939;DHT22;23057;48.554;14.454;2022-07-23T08:58:45;24.70;1.00
41939;DHT22;23057;48.554;14.454;2022-07-23T09:01:16;24.70;99.90
41939;DHT22;23057;48.554;14.454;2022-07-23T09:03:46;25.10;99.90
41939;DHT22;23057;48.554;14.454;2022-07-23T09:06:17;25.10;99.90
41939;DHT22;23057;48.554;14.454;2022-07-23T09:08:48;25.00;99.90
41939;DHT22;23057;48.554;14.454;2022-07-23T09:11:19;25.00;99.90
41939;DHT22;23057;48.554;14.454;2022-07-23T09:13:50;25.10;99.90
41939;DHT22;23057;48.554;14.454;2022-07-23T09:16:25;25.20;99.90
41939;DHT22;23057;48.554;14.454;2022-07-23T09:19:00;25.30;99.90
41939;DHT22;23057;48.554;14.454;2022-07-23T09:21:34;25.00;99.90
41939;DHT22;23057;48.554;14.454;2022-07-23T09:24:12;25.10;99.90
41939;DHT22;23057;48.554;14.454;2022-07-23T09:26:47;25.10;99.90
41939;DHT22;23057;48.554;14.454;2022-07-23T09:29:24;25.70;99.90
41939;DHT22;23057;48.554;14.454;2022-07-23T09:31:57;25.90;99.90
41939;DHT22;23057;48.554;14.454;2022-07-23T09:34:36;26.00;99.90
41939;DHT22;23057;48.554;14.454;2022-07-23T09:39:47;25.90;99.90
41939;DHT22;23057;48.554;14.454;2022-07-23T09:42:19;25.80;99.90
41939;DHT22;23057;48.554;14.454;2022-07-23T09:44:59;25.60;99.90
41939;DHT22;23057;48.554;14.454;2022-07-23T09:47:31;25.70;99.90
41939;DHT22;23057;48.554;14.454;2022-07-23T09:50:06;25.80;99.90
41939;DHT22;23057;48.554;14.454;2022-07-23T09:55:19;26.00;99.90
41939;DHT22;23057;48.554;14.454;2022-07-23T09:58:06;25.90;99.90
41939;DHT22;23057;48.554;14.454;2022-07-23T10:00:43;26.30;99.90
41939;DHT22;23057;48.554;14.454;2022-07-23T10:03:19;26.30;99.90
41939;DHT22;23057;48.554;14.454;2022-07-23T10:05:51;26.20;99.90
41939;DHT22;23057;48.554;14.454;2022-07-23T10:08:23;26.10;99.90
41939;DHT22;23057;48.554;14.454;2022-07-23T10:10:54;26.20;99.90
41939;DHT22;23057;48.554;14.454;2022-07-23T10:13:26;27.00;99.90
41939;DHT22;23057;48.554;14.454;2022-07-23T10:16:16;27.30;99.90
41939;DHT22;23057;48.554;14.454;2022-07-23T10:18:48;26.50;99.90
41939;DHT22;23057;48.554;14.454;2022-07-23T10:38:53;28.00;99.90
41939;DHT22;23057;48.554;14.454;2022-07-23T10:41:36;28.00;99.90
41939;DHT22;23057;48.554;14.454;2022-07-23T10:44:10;28.10;99.90
41939;DHT22;23057;48.554;14.454;2022-07-23T10:46:53;28.60;99.90
41939;DHT22;23057;48.554;14.454;2022-07-23T10:49:51;29.00;99.90
41939;DHT22;23057;48.554;14.454;2022-07-23T10:52:23;29.00;99.90
41939;DHT22;23057;48.554;14.454;2022-07-23T10:57:49;29.60;99.90
41939;DHT22;23057;48.554;14.454;2022-07-23T11:00:24;29.70;99.90
41939;DHT22;23057;48.554;14.454;2022-07-23T11:02:59;28.90;99.90
41939;DHT22;23057;48.554;14.454;2022-07-23T11:05:55;28.80;99.90
41939;DHT22;23057;48.554;14.454;2022-07-23T11:08:25;28.70;99.90
41939;DHT22;23057;48.554;14.454;2022-07-23T11:13:37;28.40;99.90
41939;DHT22;23057;48.554;14.454;2022-07-23T11:16:14;28.30;99.90
41939;DHT22;23057;48.554;14.454;2022-07-23T11:18:57;28.50;99.90
41939;DHT22;23057;48.554;14.454;2022-07-23T11:24:14;27.50;99.90
41939;DHT22;23057;48.554;14.454;2022-07-23T11:26:50;27.10;99.90
41939;DHT22;23057;48.554;14.454;2022-07-23T11:31:59;27.50;99.90
41939;DHT22;23057;48.554;14.454;2022-07-23T11:34:40;28.10;99.90
41939;DHT22;23057;48.554;14.454;2022-07-23T11:40:10;28.10;99.90
41939;DHT22;23057;48.554;14.454;2022-07-23T11:42:54;28.10;99.90
41939;DHT22;23057;48.554;14.454;2022-07-23T11:45:31;28.00;99.90
41939;DHT22;23057;48.554;14.454;2022-07-23T11:48:24;27.80;99.90
41939;DHT22;23057;48.554;14.454;2022-07-23T11:51:00;27.60;99.90
41939;DHT22;23057;48.554;14.454;2022-07-23T11:53:32;27.50;99.90
41939;DHT22;23057;48.554;14.454;2022-07-23T11:56:09;28.00;99.90
41939;DHT22;23057;48.554;14.454;2022-07-23T11:58:41;28.30;99.90
41939;DHT22;23057;48.554;14.454;2022-07-23T12:01:26;28.60;99.90
41939;DHT22;23057;48.554;14.454;2022-07-23T12:03:57;28.40;99.90
41939;DHT22;23057;48.554;14.454;2022-07-23T12:06:27;28.50;99.90
41939;DHT22;23057;48.554;14.454;2022-07-23T12:08:58;27.90;99.90
41939;DHT22;23057;48.554;14.454;2022-07-23T12:11:29;28.20;99.90
41939;DHT22;23057;48.554;14.454;2022-07-23T12:14:00;28.40;99.90
41939;DHT22;23057;48.554;14.454;2022-07-23T12:16:31;28.30;99.90
41939;DHT22;23057;48.554;14.454;2022-07-23T12:19:02;28.50;99.90
41939;DHT22;23057;48.554;14.454;2022-07-23T12:21:33;28.70;99.90
41939;DHT22;23057;48.554;14.454;2022-07-23T12:24:07;29.10;99.90
41939;DHT22;23057;48.554;14.454;2022-07-23T12:26:38;28.80;99.90
41939;DHT22;23057;48.554;14.454;2022-07-23T12:29:09;28.60;99.90
41939;DHT22;23057;48.554;14.454;2022-07-23T12:31:39;28.50;99.90
41939;DHT22;23057;48.554;14.454;2022-07-23T12:34:14;28.80;99.90
41939;DHT22;23057;48.554;14.454;2022-07-23T12:36:45;29.00;99.90
41939;DHT22;23057;48.554;14.454;2022-07-23T12:39:30;29.00;99.90
41939;DHT22;23057;48.554;14.454;2022-07-23T12:42:02;28.90;99.90
41939;DHT22;23057;48.554;14.454;2022-07-23T12:44:41;28.30;99.90
41939;DHT22;23057;48.554;14.454;2022-07-23T12:47:55;27.80;99.90
41939;DHT22;23057;48.554;14.454;2022-07-23T12:50:31;27.40;99.90
41939;DHT22;23057;48.554;14.454;2022-07-23T12:53:15;27.20;99.90
41939;DHT22;23057;48.554;14.454;2022-07-23T12:55:58;27.30;99.90
41939;DHT22;23057;48.554;14.454;2022-07-23T12:58:44;27.50;99.90
41939;DHT22;23057;48.554;14.454;2022-07-23T13:01:34;27.60;99.90
41939;DHT22;23057;48.554;14.454;2022-07-23T13:04:09;28.30;99.90
41939;DHT22;23057;48.554;14.454;2022-07-23T13:06:45;28.30;99.90
41939;DHT22;23057;48.554;14.454;2022-07-23T13:09:23;28.30;99.90
41939;DHT22;23057;48.554;14.454;2022-07-23T13:11:57;28.60;99.90
41939;DHT22;23057;48.554;14.454;2022-07-23T13:14:28;28.80;99.90
41939;DHT22;23057;48.554;14.454;2022-07-23T13:16:59;29.00;99.90
41939;DHT22;23057;48.554;14.454;2022-07-23T13:19:30;28.90;99.90
41939;DHT22;23057;48.554;14.454;2022-07-23T13:22:01;29.00;99.90
41939;DHT22;23057;48.554;14.454;2022-07-23T13:24:32;29.00;99.90
41939;DHT22;23057;48.554;14.454;2022-07-23T13:27:04;29.10;99.90
41939;DHT22;23057;48.554;14.454;2022-07-23T13:29:37;28.70;99.90
41939;DHT22;23057;48.554;14.454;2022-07-23T13:32:07;28.60;99.90
41939;DHT22;23057;48.554;14.454;2022-07-23T13:34:38;29.00;99.90
41939;DHT22;23057;48.554;14.454;2022-07-23T13:37:10;28.90;99.90
41939;DHT22;23057;48.554;14.454;2022-07-23T13:39:43;28.60;99.90
41939;DHT22;23057;48.554;14.454;2022-07-23T13:42:14;28.50;99.90
41939;DHT22;23057;48.554;14.454;2022-07-23T13:44:45;28.70;99.90
41939;DHT22;23057;48.554;14.454;2022-07-23T13:47:15;28.70;99.90
41939;DHT22;23057;48.554;14.454;2022-07-23T13:49:46;28.30;99.90
41939;DHT22;23057;48.554;14.454;2022-07-23T13:52:17;27.60;99.90
41939;DHT22;23057;48.554;14.454;2022-07-23T13:54:48;27.60;99.90
41939;DHT22;23057;48.554;14.454;2022-07-23T13:57:18;28.10;99.90
41939;DHT22;23057;48.554;14.454;2022-07-23T13:59:49;27.80;99.90
41939;DHT22;23057;48.554;14.454;2022-07-23T14:02:20;27.70;99.90
41939;DHT22;23057;48.554;14.454;2022-07-23T14:04:51;27.70;99.90
41939;DHT22;23057;48.554;14.454;2022-07-23T14:07:23;27.80;99.90
41939;DHT22;23057;48.554;14.454;2022-07-23T14:09:54;27.80;99.90
41939;DHT22;23057;48.554;14.454;2022-07-23T14:12:25;28.10;99.90
41939;DHT22;23057;48.554;14.454;2022-07-23T14:14:56;28.00;99.90
41939;DHT22;23057;48.554;14.454;2022-07-23T14:17:27;27.90;99.90
41939;DHT22;23057;48.554;14.454;2022-07-23T14:19:58;27.90;99.90
41939;DHT22;23057;48.554;14.454;2022-07-23T14:22:29;27.80;99.90
41939;DHT22;23057;48.554;14.454;2022-07-23T14:25:00;27.60;99.90
41939;DHT22;23057;48.554;14.454;2022-07-23T14:27:31;27.80;99.90
41939;DHT22;23057;48.554;14.454;2022-07-23T14:30:03;27.80;99.90
41939;DHT22;23057;48.554;14.454;2022-07-23T14:32:36;27.60;99.90
41939;DHT22;23057;48.554;14.454;2022-07-23T14:35:07;27.40;99.90
41939;DHT22;23057;48.554;14.454;2022-07-23T14:37:38;27.80;99.90
41939;DHT22;23057;48.554;14.454;2022-07-23T14:40:10;27.80;99.90
41939;DHT22;23057;48.554;14.454;2022-07-23T14:42:41;27.80;99.90
41939;DHT22;23057;48.554;14.454;2022-07-23T14:45:11;27.80;99.90
41939;DHT22;23057;48.554;14.454;2022-07-23T14:47:42;27.60;99.90
41939;DHT22;23057;48.554;14.454;2022-07-23T14:50:13;27.50;99.90
41939;DHT22;23057;48.554;14.454;2022-07-23T14:52:45;27.50;99.90
41939;DHT22;23057;48.554;14.454;2022-07-23T14:55:16;27.40;99.90
41939;DHT22;23057;48.554;14.454;2022-07-23T14:57:49;27.40;99.90
41939;DHT22;23057;48.554;14.454;2022-07-23T15:00:20;27.20;99.90
41939;DHT22;23057;48.554;14.454;2022-07-23T15:02:51;27.40;99.90
41939;DHT22;23057;48.554;14.454;2022-07-23T15:05:23;27.50;99.90
41939;DHT22;23057;48.554;14.454;2022-07-23T15:07:54;27.60;99.90
41939;DHT22;23057;48.554;14.454;2022-07-23T15:10:25;27.80;99.90
41939;DHT22;23057;48.554;14.454;2022-07-23T15:12:56;27.80;99.90
41939;DHT22;23057;48.554;14.454;2022-07-23T15:15:26;27.80;99.90
41939;DHT22;23057;48.554;14.454;2022-07-23T15:17:57;27.40;99.90
41939;DHT22;23057;48.554;14.454;2022-07-23T15:20:28;27.00;99.90
41939;DHT22;23057;48.554;14.454;2022-07-23T15:23:00;27.00;99.90
41939;DHT22;23057;48.554;14.454;2022-07-23T15:25:30;26.90;99.90
41939;DHT22;23057;48.554;14.454;2022-07-23T15:28:01;27.10;99.90
41939;DHT22;23057;48.554;14.454;2022-07-23T15:30:32;27.20;99.90
41939;DHT22;23057;48.554;14.454;2022-07-23T15:33:04;27.60;99.90
41939;DHT22;23057;48.554;14.454;2022-07-23T15:35:35;27.60;99.90
41939;DHT22;23057;48.554;14.454;2022-07-23T15:38:06;27.50;99.90
41939;DHT22;23057;48.554;14.454;2022-07-23T15:40:37;27.20;99.90
41939;DHT22;23057;48.554;14.454;2022-07-23T15:43:08;27.10;99.90
41939;DHT22;23057;48.554;14.454;2022-07-23T15:45:39;27.10;99.90
41939;DHT22;23057;48.554;14.454;2022-07-23T15:48:11;27.30;99.90
41939;DHT22;23057;48.554;14.454;2022-07-23T15:50:42;27.10;99.90
41939;DHT22;23057;48.554;14.454;2022-07-23T15:53:14;26.80;99.90
41939;DHT22;23057;48.554;14.454;2022-07-23T15:55:46;26.90;99.90
41939;DHT22;23057;48.554;14.454;2022-07-23T15:58:17;26.40;99.90
41939;DHT22;23057;48.554;14.454;2022-07-23T16:00:47;26.20;99.90
41939;DHT22;23057;48.554;14.454;2022-07-23T16:03:18;26.00;99.90
41939;DHT22;23057;48.554;14.454;2022-07-23T16:05:49;25.90;99.90
41939;DHT22;23057;48.554;14.454;2022-07-23T16:08:20;25.80;99.90
41939;DHT22;23057;48.554;14.454;2022-07-23T16:10:51;25.80;99.90
41939;DHT22;23057;48.554;14.454;2022-07-23T16:13:22;25.70;99.90
41939;DHT22;23057;48.554;14.454;2022-07-23T16:15:53;25.80;99.90
41939;DHT22;23057;48.554;14.454;2022-07-23T16:18:24;25.90;99.90
41939;DHT22;23057;48.554;14.454;2022-07-23T16:20:55;25.80;99.90
41939;DHT22;23057;48.554;14.454;2022-07-23T16:23:26;25.80;99.90
41939;DHT22;23057;48.554;14.454;2022-07-23T16:25:57;25.80;99.90
41939;DHT22;23057;48.554;14.454;2022-07-23T16:28:29;25.70;99.90